Time;durP1;ratioP1;P1;durP2;ratioP2;P2;SDS_P1;SDS_P2;PMS_P1;PMS_P2;Temp;Humidity;BMP_temperature;BMP_pressure;BME280_temperature;BME280_humidity;BME280_pressure;Samples;Min_cycle;Max_cycle;Signal;HPM_P1;HPM_P2
2020/12/07 00:00:36;;;;;;;8.97;6.30;;;3.20;99.90;;;;;;5035560;28;20176;-84
2020/12/07 00:03:02;;;;;;;6.07;5.50;;;2.90;99.90;;;;;;5035734;28;20191;-83
2020/12/07 00:05:29;;;;;;;7.07;6.37;;;2.80;99.90;;;;;;5034589;28;20419;-84
2020/12/07 00:07:55;;;;;;;9.40;6.40;;;3.40;99.90;;;;;;5035602;28;20415;-85
2020/12/07 00:10:20;;;;;;;8.90;6.60;;;3.10;99.90;;;;;;5034276;28;20435;-85
2020/12/07 00:12:46;;;;;;;6.83;5.30;;;3.00;99.90;;;;;;5034438;28;20184;-85
2020/12/07 00:15:12;;;;;;;7.40;5.80;;;3.00;99.90;;;;;;5034129;28;20184;-85
2020/12/07 00:17:37;;;;;;;7.00;6.00;;;3.00;99.90;;;;;;5035272;28;20632;-84
2020/12/07 00:20:04;;;;;;;7.47;6.70;;;3.00;99.90;;;;;;5033800;28;20471;-85
2020/12/07 00:22:31;;;;;;;10.13;7.70;;;3.10;99.90;;;;;;5035369;28;20215;-85
2020/12/07 00:24:58;;;;;;;6.60;5.47;;;3.30;99.90;;;;;;5035323;28;20426;-83
2020/12/07 00:27:26;;;;;;;11.67;8.30;;;2.90;99.90;;;;;;5035313;28;20416;-85
2020/12/07 00:29:52;;;;;;;7.50;5.43;;;3.30;99.90;;;;;;5035068;28;20455;-84
2020/12/07 00:32:19;;;;;;;10.43;7.43;;;3.60;99.90;;;;;;5035291;28;20427;-84
2020/12/07 00:34:44;;;;;;;14.33;8.40;;;3.00;99.90;;;;;;5035338;28;20775;-85
2020/12/07 00:37:10;;;;;;;7.27;5.70;;;3.40;99.90;;;;;;5034931;28;20426;-84
2020/12/07 00:39:36;;;;;;;6.53;5.70;;;2.90;99.90;;;;;;5033486;28;20223;-85
2020/12/07 00:42:03;;;;;;;12.77;6.83;;;3.00;99.90;;;;;;5035223;28;20943;-84
2020/12/07 00:44:28;;;;;;;7.03;5.90;;;3.40;99.90;;;;;;5033755;28;20212;-85
2020/12/07 00:46:54;;;;;;;6.43;5.60;;;3.40;99.90;;;;;;5034036;28;20416;-84
2020/12/07 00:49:20;;;;;;;7.37;5.87;;;3.00;99.90;;;;;;5035656;28;20416;-84
2020/12/07 00:51:47;;;;;;;7.53;6.70;;;3.30;99.90;;;;;;5035810;28;20509;-84
2020/12/07 00:54:14;;;;;;;7.27;5.43;;;3.00;99.90;;;;;;5033597;28;20169;-84
2020/12/07 00:56:39;;;;;;;8.37;6.53;;;3.20;99.90;;;;;;5034524;28;20519;-83
2020/12/07 00:59:05;;;;;;;7.33;5.73;;;3.10;99.90;;;;;;5034530;28;20463;-85
2020/12/07 01:01:30;;;;;;;7.77;6.80;;;3.00;99.90;;;;;;5033534;28;20176;-84
2020/12/07 01:03:56;;;;;;;7.73;7.03;;;3.50;99.90;;;;;;5036956;28;20204;-85
2020/12/07 01:06:27;;;;;;;6.13;5.53;;;2.90;99.90;;;;;;5036340;28;20180;-84
2020/12/07 01:08:53;;;;;;;6.03;5.43;;;3.40;99.90;;;;;;5034709;28;20176;-84
2020/12/07 01:11:18;;;;;;;6.33;5.70;;;3.10;99.90;;;;;;5034276;28;20454;-83
2020/12/07 01:13:44;;;;;;;7.30;5.73;;;3.40;99.90;;;;;;5035652;28;20177;-84
2020/12/07 01:16:09;;;;;;;7.07;5.40;;;3.40;99.90;;;;;;5035646;28;20169;-84
2020/12/07 01:18:35;;;;;;;8.03;5.83;;;3.10;99.90;;;;;;5035970;28;20215;-82
2020/12/07 01:21:00;;;;;;;5.20;4.70;;;3.40;99.90;;;;;;5035946;28;20168;-82
2020/12/07 01:23:26;;;;;;;5.80;5.20;;;3.50;99.90;;;;;;5035572;28;20175;-82
2020/12/07 01:25:51;;;;;;;5.43;4.93;;;3.50;99.90;;;;;;5033939;28;20184;-82
2020/12/07 01:28:17;;;;;;;5.63;5.10;;;3.50;99.90;;;;;;5033853;28;20173;-82
2020/12/07 01:30:44;;;;;;;5.50;4.63;;;3.60;99.90;;;;;;5034002;28;20191;-83
2020/12/07 01:33:10;;;;;;;4.60;4.17;;;3.60;99.90;;;;;;5033961;28;20532;-83
2020/12/07 01:35:35;;;;;;;4.67;3.50;;;3.10;99.90;;;;;;5032493;28;20415;-82
2020/12/07 01:38:01;;;;;;;5.10;4.60;;;3.50;99.90;;;;;;5032460;28;20208;-83
2020/12/07 01:40:27;;;;;;;5.07;4.57;;;3.30;99.90;;;;;;5033751;28;20248;-83
2020/12/07 01:42:52;;;;;;;4.90;4.20;;;3.30;99.90;;;;;;5033856;28;20370;-84
2020/12/07 01:45:18;;;;;;;4.60;4.13;;;3.10;99.90;;;;;;5033913;28;20165;-83
2020/12/07 01:47:44;;;;;;;4.53;4.10;;;3.50;99.90;;;;;;5034972;28;20195;-83
2020/12/07 01:50:09;;;;;;;5.63;5.10;;;3.50;99.90;;;;;;5035181;28;20175;-83
2020/12/07 01:52:35;;;;;;;5.60;5.10;;;3.20;99.90;;;;;;5034605;28;20195;-83
2020/12/07 01:55:02;;;;;;;5.77;5.10;;;3.60;99.90;;;;;;5032551;28;20310;-83
2020/12/07 01:57:27;;;;;;;6.23;4.50;;;3.10;99.90;;;;;;5034100;28;20533;-83
2020/12/07 01:59:53;;;;;;;4.40;3.90;;;3.30;99.90;;;;;;5034116;28;20426;-83
2020/12/07 02:02:19;;;;;;;4.40;3.93;;;3.00;99.90;;;;;;5033542;28;20165;-83
2020/12/07 02:04:45;;;;;;;6.10;4.43;;;3.10;99.90;;;;;;5032374;28;20317;-83
2020/12/07 02:07:18;;;;;;;3.80;3.33;;;3.00;99.90;;;;;;5033659;28;20255;-84
2020/12/07 02:09:44;;;;;;;5.53;4.37;;;3.60;99.90;;;;;;5033343;28;20782;-83
2020/12/07 02:12:09;;;;;;;5.33;3.93;;;3.10;99.90;;;;;;5033509;28;20404;-82
2020/12/07 02:14:35;;;;;;;4.60;4.10;;;3.30;99.90;;;;;;5032018;28;20663;-82
2020/12/07 02:17:00;;;;;;;5.07;4.57;;;3.00;99.90;;;;;;5031754;28;20190;-83
2020/12/07 02:19:26;;;;;;;3.83;3.43;;;3.10;99.90;;;;;;5031910;28;20219;-84
2020/12/07 02:21:51;;;;;;;4.43;3.17;;;3.10;99.90;;;;;;5033396;28;20577;-84
2020/12/07 02:24:17;;;;;;;3.97;3.40;;;3.00;99.90;;;;;;5032333;28;20222;-84
2020/12/07 02:26:42;;;;;;;3.00;2.80;;;3.10;99.90;;;;;;5033316;28;20208;-83
2020/12/07 02:29:08;;;;;;;7.67;3.90;;;2.90;99.90;;;;;;5032125;28;20183;-84
2020/12/07 02:31:34;;;;;;;3.80;3.03;;;3.00;99.90;;;;;;5033363;28;20196;-83
2020/12/07 02:33:59;;;;;;;4.87;4.03;;;2.90;99.90;;;;;;5031961;28;20176;-83
2020/12/07 02:36:25;;;;;;;4.70;4.20;;;3.10;99.90;;;;;;5033090;28;20234;-84
2020/12/07 02:38:50;;;;;;;4.60;3.40;;;3.40;99.90;;;;;;5031757;28;20227;-83
2020/12/07 02:41:16;;;;;;;4.00;3.60;;;3.30;99.90;;;;;;5031564;28;20176;-83
2020/12/07 02:43:41;;;;;;;4.40;3.57;;;2.90;99.90;;;;;;5031848;28;20176;-83
2020/12/07 02:46:07;;;;;;;3.80;3.50;;;2.90;99.90;;;;;;5031625;28;20267;-84
2020/12/07 02:48:32;;;;;;;3.63;3.23;;;3.00;99.90;;;;;;5031638;28;20172;-82
2020/12/07 02:50:58;;;;;;;4.03;3.50;;;3.00;99.90;;;;;;5033066;28;20183;-82
2020/12/07 02:53:23;;;;;;;5.30;4.03;;;3.00;99.90;;;;;;5032941;28;20169;-83
2020/12/07 02:55:49;;;;;;;3.57;3.27;;;3.10;99.90;;;;;;5032954;28;20215;-83
2020/12/07 02:58:15;;;;;;;4.70;4.30;;;3.40;99.90;;;;;;5031451;28;20635;-83
2020/12/07 03:00:40;;;;;;;4.07;3.57;;;3.00;99.90;;;;;;5032963;28;20173;-83
2020/12/07 03:03:06;;;;;;;3.40;3.10;;;2.90;99.90;;;;;;5032923;28;20173;-82
2020/12/07 03:05:31;;;;;;;3.57;3.27;;;3.10;99.90;;;;;;5031635;28;20183;-84
2020/12/07 03:07:57;;;;;;;3.67;3.37;;;3.30;99.90;;;;;;5034737;28;20177;-83
2020/12/07 03:10:23;;;;;;;2.80;2.60;;;3.00;99.90;;;;;;5035127;28;20189;-83
2020/12/07 03:12:48;;;;;;;3.50;3.20;;;2.90;99.90;;;;;;5035012;28;20187;-83
2020/12/07 03:15:14;;;;;;;2.40;2.20;;;3.00;99.90;;;;;;5036327;28;20180;-82
2020/12/07 03:17:40;;;;;;;2.63;2.43;;;2.80;99.90;;;;;;5035282;28;20227;-83
2020/12/07 03:20:05;;;;;;;2.87;2.67;;;2.90;99.90;;;;;;5036585;28;20176;-83
2020/12/07 03:22:31;;;;;;;2.87;2.57;;;3.20;99.90;;;;;;5035850;28;20604;-83
2020/12/07 03:24:56;;;;;;;2.30;2.10;;;3.00;99.90;;;;;;5035461;28;20191;-83
2020/12/07 03:27:22;;;;;;;2.20;2.10;;;2.80;99.90;;;;;;5036392;28;20176;-82
2020/12/07 03:29:48;;;;;;;3.20;2.90;;;3.30;99.90;;;;;;5036175;28;20191;-83
2020/12/07 03:32:13;;;;;;;3.10;2.80;;;2.80;99.90;;;;;;5038720;28;20188;-82
2020/12/07 03:34:39;;;;;;;3.20;2.90;;;2.80;99.90;;;;;;5037681;28;20203;-83
2020/12/07 03:37:04;;;;;;;4.33;3.40;;;2.80;99.90;;;;;;5035832;28;20204;-83
2020/12/07 03:39:30;;;;;;;3.23;3.00;;;2.80;99.90;;;;;;5035260;28;20215;-82
2020/12/07 03:41:55;;;;;;;3.53;3.23;;;3.20;99.90;;;;;;5037090;28;20208;-83
2020/12/07 03:44:21;;;;;;;3.30;3.00;;;2.80;99.90;;;;;;5036588;28;20180;-82
2020/12/07 03:46:47;;;;;;;3.30;3.00;;;2.90;99.90;;;;;;5036964;28;20180;-82
2020/12/07 03:49:12;;;;;;;3.00;2.80;;;2.90;99.90;;;;;;5034790;28;20534;-83
2020/12/07 03:51:38;;;;;;;3.10;2.80;;;2.80;99.90;;;;;;5034463;28;20187;-82
2020/12/07 03:54:03;;;;;;;2.57;2.37;;;2.80;99.90;;;;;;5034659;28;20188;-82
2020/12/07 03:56:29;;;;;;;3.13;2.93;;;2.80;99.90;;;;;;5034991;28;20627;-82
2020/12/07 03:58:55;;;;;;;3.63;3.23;;;2.70;99.90;;;;;;5034344;28;20300;-85
2020/12/07 04:01:20;;;;;;;3.07;2.77;;;2.90;99.90;;;;;;5034243;28;20192;-83
2020/12/07 04:03:53;;;;;;;4.17;3.67;;;2.90;99.90;;;;;;5034132;28;20181;-82
2020/12/07 04:06:24;;;;;;;2.97;2.63;;;3.10;99.90;;;;;;5034358;28;20271;-83
2020/12/07 04:08:49;;;;;;;3.33;3.03;;;2.90;99.90;;;;;;5035219;28;20426;-83
2020/12/07 04:11:15;;;;;;;3.90;2.90;;;2.70;99.90;;;;;;5039215;28;20411;-82
2020/12/07 04:13:42;;;;;;;7.03;3.50;;;3.10;99.90;;;;;;5035712;28;20209;-83
2020/12/07 04:16:07;;;;;;;2.90;2.70;;;3.10;99.90;;;;;;5035404;28;20172;-84
2020/12/07 04:18:33;;;;;;;3.10;2.80;;;2.80;99.90;;;;;;5034587;28;20548;-83
2020/12/07 04:21:00;;;;;;;3.50;3.23;;;2.70;99.90;;;;;;5034031;28;20181;-83
2020/12/07 04:23:30;;;;;;;2.40;2.10;;;2.70;99.90;;;;;;5035185;28;20524;-83
2020/12/07 04:25:56;;;;;;;3.47;3.17;;;3.10;99.90;;;;;;5035455;28;20420;-84
2020/12/07 04:28:22;;;;;;;3.70;3.10;;;3.10;99.90;;;;;;5035412;28;20827;-84
2020/12/07 04:30:49;;;;;;;3.53;3.23;;;3.10;99.90;;;;;;5034426;28;20263;-83
2020/12/07 04:33:14;;;;;;;4.10;3.70;;;3.10;99.90;;;;;;5034372;28;20649;-84
2020/12/07 04:35:40;;;;;;;3.00;2.70;;;2.70;99.90;;;;;;5034777;28;21104;-83
2020/12/07 04:38:07;;;;;;;3.20;3.00;;;3.10;99.90;;;;;;5035071;28;20212;-84
2020/12/07 04:40:33;;;;;;;4.00;3.43;;;2.90;99.90;;;;;;5033691;28;20207;-83
2020/12/07 04:43:00;;;;;;;6.00;3.47;;;2.80;99.90;;;;;;5035642;28;20443;-83
2020/12/07 04:45:25;;;;;;;4.10;2.83;;;2.90;99.90;;;;;;5033554;28;20522;-84
2020/12/07 04:47:52;;;;;;;4.83;4.33;;;3.10;99.90;;;;;;5033778;28;20863;-83
2020/12/07 04:50:20;;;;;;;4.30;3.10;;;3.10;99.90;;;;;;5035006;28;20199;-83
2020/12/07 04:52:50;;;;;;;6.70;3.53;;;3.20;99.90;;;;;;5034824;28;20447;-84
2020/12/07 04:55:16;;;;;;;3.80;3.20;;;3.20;99.90;;;;;;5033810;28;20518;-83
2020/12/07 04:57:42;;;;;;;3.10;2.90;;;2.80;99.90;;;;;;5036197;28;20850;-84
2020/12/07 05:00:08;;;;;;;4.70;3.70;;;2.80;99.90;;;;;;5034466;28;20439;-82
2020/12/07 05:02:37;;;;;;;3.40;3.10;;;3.20;99.90;;;;;;5035639;28;20771;-84
2020/12/07 05:05:05;;;;;;;3.40;3.10;;;2.80;99.90;;;;;;5035147;28;20189;-83
2020/12/07 05:07:34;;;;;;;3.70;3.40;;;2.80;99.90;;;;;;5034029;28;20418;-81
2020/12/07 05:10:14;;;;;;;4.23;3.83;;;2.80;99.90;;;;;;5034480;28;20420;-83
2020/12/07 05:12:45;;;;;;;3.97;3.57;;;3.10;99.90;;;;;;5034978;28;20411;-82
2020/12/07 05:15:13;;;;;;;5.10;4.10;;;3.40;99.90;;;;;;5035663;28;20907;-82
2020/12/07 05:17:39;;;;;;;3.70;3.40;;;3.20;99.90;;;;;;5036509;28;20557;-84
2020/12/07 05:20:06;;;;;;;24.90;16.93;;;3.00;99.90;;;;;;5033858;28;20432;-82
2020/12/07 05:22:34;;;;;;;5.50;3.90;;;2.90;99.90;;;;;;5034690;28;20419;-81
2020/12/07 05:25:04;;;;;;;3.67;3.37;;;2.90;99.90;;;;;;5037360;28;20419;-84
2020/12/07 05:27:32;;;;;;;5.63;4.83;;;3.00;99.90;;;;;;5033723;28;20454;-84
2020/12/07 05:32:42;;;;;;;5.00;4.50;;;2.90;99.90;;;;;;5035361;28;20453;-86
2020/12/07 05:35:08;;;;;;;4.20;3.10;;;3.00;99.90;;;;;;5034051;28;20477;-83
2020/12/07 05:37:36;;;;;;;4.13;3.20;;;3.10;99.90;;;;;;5032925;28;20439;-83
2020/12/07 05:40:07;;;;;;;6.73;4.40;;;3.10;99.90;;;;;;5033350;28;20173;-82
2020/12/07 05:42:33;;;;;;;4.13;3.80;;;3.40;99.90;;;;;;5033673;28;20415;-81
2020/12/07 05:45:00;;;;;;;4.67;3.60;;;3.40;99.90;;;;;;5034444;28;20424;-83
2020/12/07 05:47:26;;;;;;;4.27;3.60;;;3.10;99.90;;;;;;5037076;28;20475;-83
2020/12/07 05:49:54;;;;;;;5.13;3.67;;;3.50;99.90;;;;;;5032542;28;20439;-81
2020/12/07 05:52:29;;;;;;;4.70;4.20;;;3.10;99.90;;;;;;5037790;28;20779;-83
2020/12/07 05:54:57;;;;;;;4.63;3.60;;;3.60;99.90;;;;;;5034293;28;20497;-84
2020/12/07 05:57:27;;;;;;;4.07;3.70;;;3.60;99.90;;;;;;5034030;28;20815;-84
2020/12/07 05:59:56;;;;;;;4.30;3.63;;;3.40;99.90;;;;;;5036465;28;20427;-82
2020/12/07 06:02:22;;;;;;;3.33;3.03;;;3.50;99.90;;;;;;5034380;28;20421;-83
2020/12/07 06:04:50;;;;;;;3.97;3.60;;;3.40;99.90;;;;;;5032397;28;20480;-83
2020/12/07 06:07:18;;;;;;;5.07;4.00;;;3.60;99.90;;;;;;5030238;28;20833;-84
2020/12/07 06:09:47;;;;;;;4.37;3.97;;;3.50;99.90;;;;;;5025821;28;20839;-82
2020/12/07 06:12:19;;;;;;;4.43;4.03;;;3.10;99.90;;;;;;5037589;28;20447;-82
2020/12/07 06:14:45;;;;;;;5.00;4.60;;;3.00;99.90;;;;;;5035170;28;20416;-83
2020/12/07 06:17:16;;;;;;;5.73;5.23;;;3.50;99.90;;;;;;5033350;28;20522;-80
2020/12/07 06:19:49;;;;;;;5.40;4.90;;;3.30;99.90;;;;;;5035226;28;20519;-75
2020/12/07 06:22:16;;;;;;;6.47;4.97;;;3.50;99.90;;;;;;5035719;28;20834;-83
2020/12/07 06:24:42;;;;;;;5.30;4.80;;;3.40;99.90;;;;;;5035982;28;20423;-84
2020/12/07 06:27:13;;;;;;;7.37;4.60;;;3.20;99.90;;;;;;5032848;28;20442;-84
2020/12/07 06:29:55;;;;;;;4.87;4.37;;;3.20;99.90;;;;;;5045923;28;20414;-84
2020/12/07 06:32:20;;;;;;;5.27;4.77;;;3.40;99.90;;;;;;5056183;28;20414;-83
2020/12/07 06:34:57;;;;;;;6.47;5.20;;;3.30;99.90;;;;;;5053939;28;20444;-85
2020/12/07 06:37:25;;;;;;;9.93;7.53;;;3.50;99.90;;;;;;5052883;28;20614;-82
2020/12/07 06:39:51;;;;;;;6.20;5.60;;;3.20;99.90;;;;;;5052888;28;20737;-84
2020/12/07 06:42:19;;;;;;;8.77;6.10;;;2.80;99.90;;;;;;5054675;28;20483;-81
2020/12/07 06:44:50;;;;;;;8.07;6.40;;;2.80;99.90;;;;;;5060292;28;20434;-79
2020/12/07 06:47:25;;;;;;;7.73;6.00;;;3.30;99.90;;;;;;5055368;28;20928;-81
2020/12/07 06:52:25;;;;;;;6.33;4.57;;;3.10;99.90;;;;;;5035738;28;20534;-83
2020/12/07 06:55:08;;;;;;;6.00;4.90;;;2.80;99.90;;;;;;5034414;28;20176;-82
2020/12/07 06:57:39;;;;;;;6.30;4.97;;;3.10;99.90;;;;;;5037325;28;20577;-83
2020/12/07 07:00:13;;;;;;;6.60;5.07;;;3.20;99.90;;;;;;5037778;28;20466;-84
2020/12/07 07:02:49;;;;;;;6.80;5.30;;;3.10;99.90;;;;;;5034507;28;20420;-83
2020/12/07 07:05:17;;;;;;;11.93;5.93;;;3.10;99.90;;;;;;5034581;28;20496;-86
2020/12/07 07:07:43;;;;;;;8.00;6.13;;;2.50;99.90;;;;;;5034288;28;20522;-85
2020/12/07 07:10:11;;;;;;;7.33;6.40;;;2.90;99.90;;;;;;5036989;28;20424;-82
2020/12/07 07:12:39;;;;;;;7.83;7.07;;;2.90;99.90;;;;;;5037205;28;20423;-84
2020/12/07 07:15:06;;;;;;;7.80;7.00;;;3.00;99.90;;;;;;5039477;28;20502;-84
2020/12/07 07:17:35;;;;;;;8.70;7.00;;;3.00;99.90;;;;;;5035640;28;20784;-83
2020/12/07 07:20:04;;;;;;;7.60;6.80;;;2.60;99.90;;;;;;5037808;28;20428;-83
2020/12/07 07:22:30;;;;;;;8.47;6.80;;;2.90;99.90;;;;;;5036648;28;20510;-83
2020/12/07 07:30:06;;;;;;;9.20;7.30;;;2.60;99.90;;;;;;5037186;28;20826;-84
2020/12/07 07:32:33;;;;;;;9.00;7.00;;;2.70;99.90;;;;;;5035329;28;20913;-84
2020/12/07 07:34:59;;;;;;;9.57;8.27;;;3.20;99.90;;;;;;5036238;28;20426;-85
2020/12/07 07:37:25;;;;;;;8.83;7.63;;;3.30;99.90;;;;;;5035333;28;20427;-84
2020/12/07 07:39:59;;;;;;;10.87;9.30;;;2.70;99.90;;;;;;5036579;28;20184;-84
2020/12/07 07:42:25;;;;;;;13.33;8.13;;;2.90;99.90;;;;;;5036874;28;20183;-84
2020/12/07 07:44:51;;;;;;;10.20;8.27;;;3.00;99.90;;;;;;5038645;28;20526;-83
2020/12/07 07:47:23;;;;;;;10.00;7.40;;;3.40;99.90;;;;;;5036655;28;20462;-83
2020/12/07 07:50:12;;;;;;;9.13;8.23;;;3.10;99.90;;;;;;5036866;28;20191;-84
2020/12/07 08:17:13;;;;;;;9.50;8.10;;;3.40;99.90;;;;;;5037306;28;20419;-84
2020/12/07 08:19:40;;;;;;;10.53;8.10;;;3.20;99.90;;;;;;5038171;28;20958;-86
2020/12/07 08:22:13;;;;;;;8.80;7.90;;;3.40;99.90;;;;;;5036295;28;20416;-84
2020/12/07 08:25:00;;;;;;;9.53;8.07;;;3.90;99.90;;;;;;5040053;28;20426;-84
2020/12/07 08:27:36;;;;;;;11.60;7.43;;;4.00;99.90;;;;;;5035144;28;20431;-84
2020/12/07 08:30:06;;;;;;;9.20;7.43;;;4.20;99.90;;;;;;5035963;28;20544;-84
2020/12/07 08:32:32;;;;;;;8.60;6.83;;;3.90;99.90;;;;;;5036297;28;20430;-84
2020/12/07 08:34:58;;;;;;;9.90;7.67;;;4.50;99.90;;;;;;5035714;28;20912;-83
2020/12/07 08:37:25;;;;;;;9.17;7.10;;;4.60;99.90;;;;;;5034596;28;20430;-79
2020/12/07 08:39:51;;;;;;;10.90;6.67;;;4.70;99.90;;;;;;5037078;28;20438;-84
2020/12/07 08:42:16;;;;;;;8.60;7.30;;;4.80;99.90;;;;;;5034879;28;20416;-81
2020/12/07 08:44:42;;;;;;;7.70;7.00;;;5.00;99.90;;;;;;5036072;28;20407;-82
2020/12/07 08:47:08;;;;;;;7.37;5.90;;;5.00;99.90;;;;;;5034600;28;20172;-82
2020/12/07 08:49:34;;;;;;;8.17;7.33;;;5.10;99.90;;;;;;5034445;28;20230;-85
2020/12/07 08:52:00;;;;;;;7.20;6.50;;;5.30;99.90;;;;;;5035103;28;20415;-81
2020/12/07 08:54:26;;;;;;;7.90;6.83;;;5.30;99.90;;;;;;5033342;28;20466;-85
2020/12/07 08:56:51;;;;;;;7.23;6.53;;;5.40;99.90;;;;;;5033972;28;20225;-83
2020/12/07 08:59:17;;;;;;;6.00;5.40;;;5.30;99.90;;;;;;5032985;28;20213;-85
2020/12/07 09:01:43;;;;;;;6.37;5.73;;;5.40;99.90;;;;;;5033258;28;20225;-80
2020/12/07 09:04:11;;;;;;;6.40;5.90;;;5.50;99.90;;;;;;5033391;28;20613;-83
2020/12/07 09:06:40;;;;;;;7.03;6.43;;;5.30;99.90;;;;;;5033925;28;20423;-85
2020/12/07 09:09:09;;;;;;;7.27;6.20;;;5.50;99.90;;;;;;5035901;28;20426;-83
2020/12/07 09:11:34;;;;;;;7.70;5.67;;;5.50;99.90;;;;;;5034633;28;20427;-84
2020/12/07 09:14:01;;;;;;;5.93;5.33;;;5.40;99.90;;;;;;5034380;28;20411;-82
2020/12/07 09:16:27;;;;;;;7.10;5.47;;;5.50;99.90;;;;;;5033213;28;20231;-81
2020/12/07 09:18:53;;;;;;;5.23;4.73;;;5.50;99.90;;;;;;5034835;28;21014;-84
2020/12/07 09:21:19;;;;;;;5.60;5.10;;;5.50;99.90;;;;;;5034526;28;20271;-83
2020/12/07 09:23:44;;;;;;;5.53;5.00;;;5.70;99.90;;;;;;5033391;28;20182;-83
2020/12/07 09:26:10;;;;;;;5.43;4.93;;;5.70;99.90;;;;;;5033212;28;20177;-83
2020/12/07 09:28:36;;;;;;;5.97;5.40;;;5.70;99.90;;;;;;5035380;28;20263;-84
2020/12/07 09:31:03;;;;;;;5.60;5.10;;;5.90;99.90;;;;;;5037903;28;20207;-84
2020/12/07 09:33:28;;;;;;;5.40;4.90;;;5.90;99.90;;;;;;5033850;28;20422;-83
2020/12/07 09:35:54;;;;;;;5.50;4.90;;;6.00;99.90;;;;;;5033463;28;20407;-84
2020/12/07 09:38:20;;;;;;;5.83;5.23;;;6.00;99.90;;;;;;5035342;28;20246;-84
2020/12/07 09:40:45;;;;;;;5.90;4.70;;;6.10;99.90;;;;;;5035354;28;20272;-84
2020/12/07 09:43:11;;;;;;;5.73;5.20;;;6.00;99.90;;;;;;5034958;28;20207;-83
2020/12/07 09:45:37;;;;;;;5.93;4.53;;;6.10;99.90;;;;;;5035070;28;20264;-83
2020/12/07 09:48:02;;;;;;;6.97;6.37;;;6.20;99.90;;;;;;5035391;28;20243;-85
2020/12/07 09:50:28;;;;;;;6.60;4.30;;;6.10;99.90;;;;;;5034869;28;20199;-84
2020/12/07 09:52:54;;;;;;;9.60;7.77;;;6.10;99.90;;;;;;5035240;28;20183;-85
2020/12/07 09:55:22;;;;;;;7.40;6.70;;;6.10;99.90;;;;;;5034721;28;20259;-83
2020/12/07 09:57:48;;;;;;;8.37;7.60;;;6.30;99.90;;;;;;5034434;28;20687;-82
2020/12/07 10:00:13;;;;;;;6.50;5.70;;;6.20;99.90;;;;;;5034336;28;20430;-84
2020/12/07 10:02:39;;;;;;;6.57;5.57;;;6.20;99.90;;;;;;5034549;28;20174;-83
2020/12/07 10:05:05;;;;;;;7.50;6.83;;;6.20;99.90;;;;;;5034164;28;20263;-84
2020/12/07 10:07:31;;;;;;;7.40;6.70;;;6.30;99.90;;;;;;5035946;28;20165;-82
2020/12/07 10:09:57;;;;;;;6.47;5.90;;;6.20;99.90;;;;;;5034798;28;20550;-83
2020/12/07 10:12:22;;;;;;;5.60;5.10;;;6.10;99.90;;;;;;5034396;28;20272;-83
2020/12/07 10:14:48;;;;;;;6.80;6.00;;;6.30;99.90;;;;;;5035671;28;20195;-90
2020/12/07 10:17:13;;;;;;;6.57;5.40;;;6.50;99.90;;;;;;5037558;28;20172;-81
2020/12/07 10:19:39;;;;;;;6.63;5.70;;;6.60;99.90;;;;;;5041190;28;20295;-84
2020/12/07 10:22:05;;;;;;;5.90;5.40;;;6.60;99.90;;;;;;5020272;28;20707;-84
2020/12/07 10:24:34;;;;;;;7.43;6.73;;;6.50;99.90;;;;;;5037772;28;20172;-84
2020/12/07 10:27:00;;;;;;;6.27;5.67;;;6.30;99.90;;;;;;5037879;28;20418;-84
2020/12/07 10:29:26;;;;;;;6.03;5.10;;;6.30;99.90;;;;;;5038107;28;20407;-83
2020/12/07 10:31:52;;;;;;;6.00;5.50;;;6.40;99.90;;;;;;5037434;28;20188;-83
2020/12/07 10:34:18;;;;;;;6.47;5.97;;;6.30;99.90;;;;;;5038399;28;20411;-85
2020/12/07 10:36:47;;;;;;;6.20;5.60;;;6.40;99.90;;;;;;5040031;28;20191;-84
2020/12/07 10:39:13;;;;;;;6.87;5.43;;;6.50;99.90;;;;;;5037225;28;20291;-84
2020/12/07 10:41:38;;;;;;;5.80;5.30;;;6.70;99.90;;;;;;5038176;28;20462;-84
2020/12/07 10:44:04;;;;;;;7.00;6.17;;;7.00;99.90;;;;;;5037017;28;20187;-83
2020/12/07 10:46:30;;;;;;;5.00;4.60;;;7.00;99.90;;;;;;5037069;28;20447;-84
2020/12/07 10:48:55;;;;;;;5.93;5.43;;;6.90;99.90;;;;;;5036842;28;20184;-83
2020/12/07 10:51:21;;;;;;;5.03;4.47;;;6.70;99.90;;;;;;5039344;28;20161;-83
2020/12/07 10:53:47;;;;;;;5.33;4.90;;;6.60;99.90;;;;;;5037484;28;20177;-84
2020/12/07 10:56:14;;;;;;;5.17;4.77;;;6.70;99.90;;;;;;5036470;28;20200;-84
2020/12/07 10:58:40;;;;;;;5.43;5.03;;;6.60;99.90;;;;;;5035963;28;20214;-83
2020/12/07 11:01:06;;;;;;;5.97;5.47;;;6.60;99.90;;;;;;5035826;28;20944;-84
2020/12/07 11:03:35;;;;;;;6.03;5.37;;;6.70;99.90;;;;;;5037336;28;20435;-82
2020/12/07 11:06:10;;;;;;;5.00;4.60;;;6.80;99.90;;;;;;5036894;28;20304;-85
2020/12/07 11:08:39;;;;;;;5.40;4.97;;;6.90;99.90;;;;;;5037911;28;20430;-83
2020/12/07 11:11:07;;;;;;;9.70;8.63;;;6.90;99.90;;;;;;5035899;28;20422;-82
2020/12/07 11:13:32;;;;;;;6.20;5.70;;;7.00;99.90;;;;;;5037139;28;20938;-84
2020/12/07 11:16:01;;;;;;;6.20;5.80;;;6.80;99.90;;;;;;5037414;28;20411;-84
2020/12/07 11:18:31;;;;;;;5.67;5.13;;;6.50;99.90;;;;;;5036411;28;20212;-84
2020/12/07 11:20:57;;;;;;;5.23;4.83;;;6.50;99.90;;;;;;5036376;28;20442;-83
2020/12/07 11:23:23;;;;;;;10.20;5.90;;;6.40;99.90;;;;;;5036792;28;20988;-83
2020/12/07 11:25:50;;;;;;;6.33;5.70;;;6.40;99.90;;;;;;5036183;28;20891;-83
2020/12/07 11:28:15;;;;;;;5.17;4.70;;;6.40;99.90;;;;;;5033820;28;20888;-85
2020/12/07 11:30:41;;;;;;;4.70;4.30;;;6.30;99.90;;;;;;5036651;28;20439;-84
2020/12/07 11:33:06;;;;;;;5.40;4.90;;;6.10;99.90;;;;;;5035848;28;20184;-84
2020/12/07 11:35:32;;;;;;;5.73;4.60;;;6.00;99.90;;;;;;5036068;28;20521;-83
2020/12/07 11:38:22;;;;;;;4.43;3.80;;;5.90;99.90;;;;;;5035061;28;20205;-84
2020/12/07 11:41:49;;;;;;;5.00;4.50;;;5.80;99.90;;;;;;5036352;28;20184;-84
2020/12/07 11:44:20;;;;;;;4.03;3.73;;;5.70;99.90;;;;;;5023161;28;20430;-84
2020/12/07 11:46:37;;;;;;;4.47;4.07;;;5.50;99.90;;;;;;5028825;28;20431;-85
2020/12/07 11:49:04;;;;;;;5.33;4.83;;;5.40;99.90;;;;;;5035986;28;20459;-84
2020/12/07 11:51:29;;;;;;;5.07;4.57;;;5.40;99.90;;;;;;5034854;28;20949;-83
2020/12/07 11:53:55;;;;;;;3.77;3.47;;;5.40;99.90;;;;;;5034555;28;20416;-82
2020/12/07 11:56:28;;;;;;;3.97;3.67;;;5.40;99.90;;;;;;5035760;28;20214;-81
2020/12/07 11:58:53;;;;;;;3.80;3.47;;;5.50;99.90;;;;;;5035189;28;20504;-84
2020/12/07 12:01:19;;;;;;;5.80;4.40;;;5.50;99.90;;;;;;5036348;28;20412;-84
2020/12/07 12:03:44;;;;;;;3.47;3.17;;;5.60;99.90;;;;;;5035786;28;20172;-85
2020/12/07 12:06:10;;;;;;;5.57;3.60;;;5.60;99.90;;;;;;5036296;28;20247;-84
2020/12/07 12:08:35;;;;;;;4.00;3.70;;;5.50;99.90;;;;;;5034249;28;20172;-81
2020/12/07 12:11:01;;;;;;;5.70;4.10;;;5.40;99.90;;;;;;5036001;28;20579;-82
2020/12/07 12:13:26;;;;;;;4.90;4.50;;;5.40;99.90;;;;;;5037076;28;20529;-84
2020/12/07 12:15:52;;;;;;;5.50;4.83;;;5.50;99.90;;;;;;5037232;28;20185;-83
2020/12/07 12:18:17;;;;;;;4.40;4.00;;;5.50;99.90;;;;;;5041422;28;20219;-84
2020/12/07 12:20:48;;;;;;;5.17;4.77;;;5.50;99.90;;;;;;5034096;28;20181;-83
2020/12/07 12:23:13;;;;;;;3.53;3.23;;;5.50;99.90;;;;;;5035240;28;20647;-83
2020/12/07 12:25:40;;;;;;;3.67;3.40;;;5.30;99.90;;;;;;5035183;28;20427;-83
2020/12/07 12:28:06;;;;;;;7.17;5.07;;;5.30;99.90;;;;;;5020270;28;20275;-84
2020/12/07 12:30:32;;;;;;;4.40;4.10;;;5.40;99.90;;;;;;5034927;28;20484;-82
2020/12/07 12:32:58;;;;;;;5.00;4.70;;;5.30;99.90;;;;;;5035986;28;20487;-82
2020/12/07 12:35:25;;;;;;;4.30;4.00;;;5.30;99.90;;;;;;5035852;28;20258;-84
2020/12/07 12:37:51;;;;;;;4.67;4.00;;;5.20;99.90;;;;;;5033349;28;20209;-89
2020/12/07 12:40:17;;;;;;;17.40;9.90;;;5.30;99.90;;;;;;5036862;28;20436;-83
2020/12/07 12:42:42;;;;;;;4.77;4.37;;;5.30;99.90;;;;;;5035798;28;20621;-84
2020/12/07 12:45:08;;;;;;;4.97;3.87;;;5.10;99.90;;;;;;5036810;28;20656;-83
2020/12/07 12:47:33;;;;;;;4.73;4.33;;;5.30;99.90;;;;;;5034709;28;20200;-82
2020/12/07 12:50:00;;;;;;;19.40;17.53;;;5.30;99.90;;;;;;5034452;28;20177;-84
2020/12/07 12:52:25;;;;;;;4.03;3.53;;;5.20;99.90;;;;;;5034613;28;20175;-83
2020/12/07 12:54:51;;;;;;;3.60;3.30;;;5.10;99.90;;;;;;5035217;28;20827;-84
2020/12/07 12:57:16;;;;;;;26.87;7.80;;;5.10;99.90;;;;;;5034554;28;20216;-83
2020/12/07 12:59:42;;;;;;;6.40;5.60;;;5.10;99.90;;;;;;5035522;28;20212;-83
2020/12/07 13:02:07;;;;;;;5.17;4.77;;;5.20;99.90;;;;;;5034259;28;20520;-83
2020/12/07 13:04:33;;;;;;;6.57;5.53;;;5.00;99.90;;;;;;5034299;28;20215;-84
2020/12/07 13:06:58;;;;;;;7.50;6.80;;;5.00;99.90;;;;;;5035328;28;20302;-84
2020/12/07 13:09:25;;;;;;;5.43;4.87;;;4.60;99.90;;;;;;5035832;28;20207;-83
2020/12/07 13:11:51;;;;;;;16.93;7.47;;;4.80;99.90;;;;;;5035907;28;20172;-83
2020/12/07 13:14:17;;;;;;;6.67;6.07;;;4.80;99.90;;;;;;5036283;28;20419;-83
2020/12/07 13:19:17;;;;;;;14.10;11.10;;;4.70;99.90;;;;;;5035319;28;20296;-83
2020/12/07 13:21:52;;;;;;;7.70;6.27;;;4.70;99.90;;;;;;5051128;28;20423;-84
2020/12/07 13:29:36;;;;;;;5.30;4.90;;;4.70;99.90;;;;;;5039484;28;20433;-84
2020/12/07 13:32:02;;;;;;;5.57;5.07;;;4.30;99.90;;;;;;5035772;28;20431;-84
2020/12/07 13:34:27;;;;;;;5.63;5.13;;;4.60;99.90;;;;;;5035695;28;20168;-84
2020/12/07 13:36:53;;;;;;;5.90;5.30;;;4.60;99.90;;;;;;5034276;28;20180;-83